Time;durP1;ratioP1;P1;durP2;ratioP2;P2;SDS_P1;SDS_P2;PMS_P1;PMS_P2;Temp;Humidity;BMP_temperature;BMP_pressure;BME280_temperature;BME280_humidity;BME280_pressure;Samples;Min_cycle;Max_cycle;Signal;HPM_P1;HPM_P2
2022/01/22 00:01:17;;;;;;;;;;;;;;;-13.82;92.63;101797.88;5114894;28;19928;-66
2022/01/22 00:03:43;;;;;;;;;;;;;;;-13.88;91.70;101795.00;5114765;28;19934;-63
2022/01/22 00:06:10;;;;;;;;;;;;;;;-14.03;90.17;101797.44;5114478;28;19924;-64
2022/01/22 00:08:37;;;;;;;;;;;;;;;-13.90;85.59;101789.91;5114892;28;20019;-61
2022/01/22 00:11:03;;;;;;;;;;;;;;;-14.07;85.50;101786.38;5114619;28;20317;-61
2022/01/22 00:16:16;;;;;;;;;;;;;;;-14.52;85.29;101784.41;5114437;28;19934;-65
2022/01/22 00:18:42;;;;;;;;;;;;;;;-14.85;87.71;101798.16;5114846;28;20415;-66
2022/01/22 00:21:09;;;;;;;;;;;;;;;-15.07;88.89;101800.91;5114016;28;20365;-66
2022/01/22 00:23:38;;;;;;;;;;;;;;;-14.92;91.00;101812.75;5113727;28;19947;-66
2022/01/22 00:26:05;;;;;;;;;;;;;;;-14.93;91.63;101821.00;5114443;28;19924;-68
2022/01/22 00:28:31;;;;;;;;;;;;;;;-14.85;92.62;101819.00;5113045;28;19931;-64
2022/01/22 00:30:58;;;;;;;;;;;;;;;-14.79;92.77;101821.06;5112940;28;19928;-62
2022/01/22 00:33:26;;;;;;;;;;;;;;;-14.85;92.84;101824.00;5112493;28;19924;-64
2022/01/22 00:35:53;;;;;;;;;;;;;;;-14.73;92.03;101826.44;5114611;28;19924;-65
2022/01/22 00:38:19;;;;;;;;;;;;;;;-14.64;91.76;101829.53;5113719;28;19932;-64
2022/01/22 00:40:50;;;;;;;;;;;;;;;-14.59;91.80;101837.28;5114141;27;20274;-65
2022/01/22 00:43:17;;;;;;;;;;;;;;;-14.59;92.04;101829.81;5114048;28;20018;-64
2022/01/22 00:45:44;;;;;;;;;;;;;;;-14.28;91.60;101840.94;5113970;28;19923;-63
2022/01/22 00:48:10;;;;;;;;;;;;;;;-14.44;90.96;101838.25;5114036;28;19924;-65
2022/01/22 00:50:38;;;;;;;;;;;;;;;-14.64;90.74;101833.63;5113803;28;19930;-66
2022/01/22 00:53:05;;;;;;;;;;;;;;;-14.72;91.48;101840.66;5113128;28;19923;-65
2022/01/22 00:55:31;;;;;;;;;;;;;;;-14.60;91.28;101845.56;5113205;28;19924;-67
2022/01/22 00:57:58;;;;;;;;;;;;;;;-14.87;91.48;101844.66;5113793;28;20381;-67
2022/01/22 01:00:25;;;;;;;;;;;;;;;-14.70;90.94;101846.63;5113937;28;19928;-67
2022/01/22 01:02:51;;;;;;;;;;;;;;;-14.79;90.40;101843.53;5113870;28;19935;-64
2022/01/22 01:05:18;;;;;;;;;;;;;;;-15.00;90.24;101833.00;5113583;28;19923;-67
2022/01/22 01:07:46;;;;;;;;;;;;;;;-15.03;91.44;101828.66;5113461;28;19934;-64
2022/01/22 01:10:14;;;;;;;;;;;;;;;-15.11;92.33;101833.94;5113618;28;19923;-69
2022/01/22 01:12:41;;;;;;;;;;;;;;;-15.09;91.83;101830.78;5113429;28;19924;-64
2022/01/22 01:15:20;;;;;;;;;;;;;;;-15.08;91.16;101832.50;5113611;28;20018;-69
2022/01/22 01:18:04;;;;;;;;;;;;;;;-15.12;90.77;101842.19;5113448;28;19932;-69
2022/01/22 01:34:14;;;;;;;;;;;;;;;-15.11;89.20;101842.28;5112993;28;19930;-69
2022/01/22 01:36:41;;;;;;;;;;;;;;;-14.89;88.04;101843.72;5113407;28;19925;-68
2022/01/22 01:39:13;;;;;;;;;;;;;;;-14.86;86.99;101852.25;5113006;28;19924;-69
2022/01/22 01:41:48;;;;;;;;;;;;;;;-14.95;85.81;101852.53;5113004;28;20437;-64
2022/01/22 01:44:15;;;;;;;;;;;;;;;-15.39;85.96;101849.56;5113026;28;19924;-69
2022/01/22 01:46:44;;;;;;;;;;;;;;;-15.84;87.06;101864.06;5112915;28;20354;-64
2022/01/22 01:49:11;;;;;;;;;;;;;;;-16.03;89.74;101863.53;5113337;28;19997;-69
2022/01/22 01:51:38;;;;;;;;;;;;;;;-15.75;89.70;101868.78;5113082;28;20389;-69
2022/01/22 01:54:14;;;;;;;;;;;;;;;-16.08;88.60;101870.72;5113274;28;19928;-69
2022/01/22 01:59:27;;;;;;;;;;;;;;;-15.94;89.32;101864.19;5113022;28;19930;-64
2022/01/22 02:01:54;;;;;;;;;;;;;;;-16.13;89.96;101866.13;5112962;28;20491;-69
2022/01/22 02:04:20;;;;;;;;;;;;;;;-16.13;90.82;101862.03;5112997;28;19963;-69
2022/01/22 02:06:47;;;;;;;;;;;;;;;-15.94;90.15;101866.66;5112687;28;19930;-68
2022/01/22 02:09:13;;;;;;;;;;;;;;;-15.73;87.22;101866.41;5113114;28;19924;-64
2022/01/22 02:11:43;;;;;;;;;;;;;;;-16.13;89.43;101859.53;5113007;28;19924;-64
2022/01/22 02:23:30;;;;;;;;;;;;;;;-16.21;88.58;101852.25;5112980;28;19924;-66
2022/01/22 02:25:18;;;;;;;;;;;;;;;-16.50;89.32;101861.91;5112801;28;19935;-65
2022/01/22 02:27:44;;;;;;;;;;;;;;;-16.56;89.33;101854.00;5112990;28;20019;-64
2022/01/22 02:30:18;;;;;;;;;;;;;;;-16.53;88.93;101855.84;5112779;28;19924;-64
2022/01/22 02:33:01;;;;;;;;;;;;;;;-16.63;88.66;101858.44;5112823;28;19981;-65
2022/01/22 02:35:31;;;;;;;;;;;;;;;-16.61;88.15;101855.28;5112791;28;19923;-64
2022/01/22 02:38:00;;;;;;;;;;;;;;;-16.21;85.42;101860.59;5113193;28;20419;-64
2022/01/22 02:40:29;;;;;;;;;;;;;;;-16.21;82.54;101860.59;5112807;28;19927;-64
2022/01/22 02:42:56;;;;;;;;;;;;;;;-16.33;83.75;101867.25;5112642;28;19993;-64
2022/01/22 02:45:23;;;;;;;;;;;;;;;-16.46;83.61;101865.50;5113736;28;19935;-62
2022/01/22 02:47:50;;;;;;;;;;;;;;;-16.62;83.22;101872.59;5116154;28;19924;-63
2022/01/22 02:50:17;;;;;;;;;;;;;;;-16.78;83.23;101871.53;5116016;28;19931;-62
2022/01/22 02:52:43;;;;;;;;;;;;;;;-16.87;84.19;101875.84;5116369;28;19928;-63
2022/01/22 02:55:13;;;;;;;;;;;;;;;-16.88;84.19;101880.72;5116237;28;19924;-62
2022/01/22 02:57:41;;;;;;;;;;;;;;;-16.94;83.93;101891.09;5115944;28;19924;-64
2022/01/22 03:00:10;;;;;;;;;;;;;;;-17.28;85.75;101893.56;5115861;28;19924;-64
2022/01/22 03:02:37;;;;;;;;;;;;;;;-17.48;87.72;101886.22;5116206;28;19978;-64
2022/01/22 03:05:04;;;;;;;;;;;;;;;-17.36;88.19;101893.00;5116032;28;20370;-63
2022/01/22 03:07:30;;;;;;;;;;;;;;;-17.38;88.70;101899.47;5115994;28;19924;-63
2022/01/22 03:10:01;;;;;;;;;;;;;;;-17.36;89.53;101900.47;5115846;28;19931;-63
2022/01/22 03:12:50;;;;;;;;;;;;;;;-17.18;89.39;101908.44;5115648;28;19931;-63
2022/01/22 03:18:07;;;;;;;;;;;;;;;-17.25;88.26;101912.84;5115978;28;19953;-62
2022/01/22 03:21:00;;;;;;;;;;;;;;;-17.23;89.46;101909.72;5116022;28;19927;-63
2022/01/22 03:29:00;;;;;;;;;;;;;;;-16.92;89.89;101904.53;5115503;28;20277;-63
2022/01/22 03:31:27;;;;;;;;;;;;;;;-16.87;88.07;101900.75;5115433;28;19924;-63
2022/01/22 03:33:54;;;;;;;;;;;;;;;-17.07;87.32;101903.38;5115485;28;19930;-63
2022/01/22 03:36:20;;;;;;;;;;;;;;;-17.15;88.55;101903.69;5115827;28;19923;-63
2022/01/22 03:38:47;;;;;;;;;;;;;;;-17.17;88.27;101896.84;5115679;28;19924;-63
2022/01/22 03:41:14;;;;;;;;;;;;;;;-17.25;86.34;101892.94;5115336;28;19924;-63
2022/01/22 03:43:41;;;;;;;;;;;;;;;-17.29;86.57;101895.94;5115321;28;19927;-62
2022/01/22 03:46:09;;;;;;;;;;;;;;;-17.13;87.03;101897.19;5115338;28;19998;-63
2022/01/22 03:48:35;;;;;;;;;;;;;;;-17.08;85.49;101901.63;5115281;28;20091;-63
2022/01/22 03:51:02;;;;;;;;;;;;;;;-17.02;84.22;101899.63;5115471;28;20018;-64
2022/01/22 03:53:29;;;;;;;;;;;;;;;-17.21;84.62;101903.25;5115240;28;19924;-64
2022/01/22 03:56:02;;;;;;;;;;;;;;;-16.93;81.78;101900.28;5115062;28;19927;-62
2022/01/22 03:58:29;;;;;;;;;;;;;;;-17.08;80.90;101900.03;5115065;28;19969;-63
2022/01/22 04:01:15;;;;;;;;;;;;;;;-17.29;80.68;101900.91;5115006;28;19927;-63
2022/01/22 04:03:45;;;;;;;;;;;;;;;-17.49;81.30;101890.34;5115163;28;19928;-63
2022/01/22 04:08:57;;;;;;;;;;;;;;;-17.85;83.50;101889.28;5114467;28;20362;-67
2022/01/22 04:11:24;;;;;;;;;;;;;;;-17.82;83.47;101893.63;5114992;28;19976;-67
2022/01/22 04:13:53;;;;;;;;;;;;;;;-18.40;83.53;101887.44;5114768;28;19924;-64
2022/01/22 04:16:20;;;;;;;;;;;;;;;-18.09;84.23;101887.38;5114450;28;20370;-64
2022/01/22 04:27:10;;;;;;;;;;;;;;;-18.60;83.84;101877.53;5114648;28;20019;-68
2022/01/22 04:29:37;;;;;;;;;;;;;;;-18.53;85.36;101875.66;5114482;28;19947;-67
2022/01/22 04:32:04;;;;;;;;;;;;;;;-18.61;84.65;101879.16;5114472;28;19932;-68
2022/01/22 04:34:32;;;;;;;;;;;;;;;-18.53;85.23;101884.75;5114465;28;19953;-68
2022/01/22 04:36:59;;;;;;;;;;;;;;;-18.61;85.50;101889.09;5114811;28;19946;-67
2022/01/22 04:39:27;;;;;;;;;;;;;;;-18.75;85.89;101875.63;5114249;28;19931;-67
2022/01/22 04:41:55;;;;;;;;;;;;;;;-18.43;86.87;101886.34;5114128;28;19930;-68
2022/01/22 04:44:24;;;;;;;;;;;;;;;-18.56;85.77;101886.97;5114276;28;19931;-68
2022/01/22 04:46:58;;;;;;;;;;;;;;;-18.35;85.65;101893.63;5113862;28;19924;-67
2022/01/22 04:52:41;;;;;;;;;;;;;;;-17.94;81.33;101905.09;5066050;28;19924;-67
2022/01/22 04:55:08;;;;;;;;;;;;;;;-18.08;81.26;101908.97;5113986;28;19946;-66
2022/01/22 04:57:36;;;;;;;;;;;;;;;-18.20;80.62;101903.06;5113673;28;19927;-65
2022/01/22 05:00:06;;;;;;;;;;;;;;;-18.30;81.13;101908.91;5113207;28;20292;-64
2022/01/22 05:02:32;;;;;;;;;;;;;;;-18.55;81.30;101911.06;5113846;28;19931;-69
2022/01/22 05:04:59;;;;;;;;;;;;;;;-18.86;84.08;101916.06;5113721;28;19939;-65
2022/01/22 05:07:27;;;;;;;;;;;;;;;-18.72;84.91;101920.50;5113212;28;19931;-69
2022/01/22 05:09:53;;;;;;;;;;;;;;;-18.71;85.03;101918.88;5113391;28;19924;-69
2022/01/22 05:12:20;;;;;;;;;;;;;;;-18.78;86.29;101919.16;5113707;28;19924;-69
2022/01/22 05:14:46;;;;;;;;;;;;;;;-18.46;87.05;101917.63;5113638;28;19924;-66
2022/01/22 05:17:13;;;;;;;;;;;;;;;-18.39;85.87;101919.00;5113773;28;19924;-64
2022/01/22 05:19:48;;;;;;;;;;;;;;;-18.32;85.39;101925.31;5113804;28;19924;-64
2022/01/22 05:22:26;;;;;;;;;;;;;;;-18.29;84.66;101925.53;5113501;28;20035;-63
2022/01/22 05:24:59;;;;;;;;;;;;;;;-18.64;84.56;101921.13;5113408;28;19924;-64
2022/01/22 05:30:50;;;;;;;;;;;;;;;-18.46;83.13;101912.66;5092454;28;20277;-65
2022/01/22 05:33:16;;;;;;;;;;;;;;;-18.44;83.19;101915.28;5113073;28;20015;-65
2022/01/22 05:38:26;;;;;;;;;;;;;;;-18.58;82.17;101901.75;5113478;28;19981;-65
2022/01/22 05:40:55;;;;;;;;;;;;;;;-18.76;82.28;101898.69;5113190;28;20315;-64
2022/01/22 05:43:21;;;;;;;;;;;;;;;-18.52;79.90;101893.91;5113114;28;19924;-64
2022/01/22 05:45:48;;;;;;;;;;;;;;;-18.72;78.78;101902.25;5113242;28;19924;-64
2022/01/22 05:48:15;;;;;;;;;;;;;;;-19.09;77.82;101894.31;5112900;28;19931;-64
2022/01/22 05:50:49;;;;;;;;;;;;;;;-19.36;79.43;101896.28;5112930;28;20362;-63
2022/01/22 05:53:29;;;;;;;;;;;;;;;-19.65;79.27;101900.38;5113230;28;19924;-64
2022/01/22 06:01:25;;;;;;;;;;;;;;;-19.70;80.76;101896.69;5112956;28;19930;-64
2022/01/22 06:03:52;;;;;;;;;;;;;;;-19.80;80.73;101893.44;5113075;28;19923;-64
2022/01/22 06:06:19;;;;;;;;;;;;;;;-19.76;80.92;101897.03;5112859;28;19923;-64
2022/01/22 06:08:49;;;;;;;;;;;;;;;-19.69;80.70;101904.28;5113204;28;19931;-64
2022/01/22 06:11:22;;;;;;;;;;;;;;;-20.02;80.62;101907.22;5113353;28;19924;-64
2022/01/22 06:13:49;;;;;;;;;;;;;;;-20.11;83.50;101907.31;5113101;28;19924;-62
2022/01/22 06:16:16;;;;;;;;;;;;;;;-19.96;84.31;101909.34;5113160;28;19930;-65
2022/01/22 06:18:43;;;;;;;;;;;;;;;-19.81;84.95;101905.69;5112930;28;19931;-65
2022/01/22 06:21:10;;;;;;;;;;;;;;;-19.97;85.26;101907.63;5115536;28;19924;-64
2022/01/22 06:23:37;;;;;;;;;;;;;;;-19.72;86.25;101899.06;5116851;28;19928;-64
2022/01/22 06:26:04;;;;;;;;;;;;;;;-19.56;85.62;101906.13;5116865;28;19946;-64
2022/01/22 06:28:32;;;;;;;;;;;;;;;-19.29;84.53;101899.25;5116745;28;20413;-64
2022/01/22 06:30:59;;;;;;;;;;;;;;;-19.02;82.33;101894.09;5116626;28;19923;-66
2022/01/22 06:33:25;;;;;;;;;;;;;;;-18.99;79.84;101905.88;5116619;28;19931;-68
2022/01/22 06:35:52;;;;;;;;;;;;;;;-19.23;79.64;101899.78;5116504;28;19924;-65
2022/01/22 06:38:19;;;;;;;;;;;;;;;-19.34;80.25;101898.88;5117256;28;19931;-64
2022/01/22 06:43:30;;;;;;;;;;;;;;;-19.55;81.08;101893.00;5116470;28;20399;-64
2022/01/22 06:45:58;;;;;;;;;;;;;;;-19.53;81.27;101898.09;5116303;28;20301;-64
2022/01/22 06:48:24;;;;;;;;;;;;;;;-19.45;80.90;101892.16;5116300;28;19953;-65
2022/01/22 06:50:52;;;;;;;;;;;;;;;-19.53;81.48;101901.44;5116443;28;19946;-65
2022/01/22 06:53:19;;;;;;;;;;;;;;;-19.67;82.47;101899.47;5116359;28;20006;-64
2022/01/22 06:55:52;;;;;;;;;;;;;;;-19.83;82.39;101898.16;5116306;28;20366;-64
2022/01/22 06:58:19;;;;;;;;;;;;;;;-19.85;81.65;101886.38;5116222;28;19971;-63
2022/01/22 07:00:45;;;;;;;;;;;;;;;-19.57;81.97;101890.41;5116437;28;19927;-64
2022/01/22 07:03:13;;;;;;;;;;;;;;;-19.36;80.30;101881.41;5116531;28;19931;-64
2022/01/22 07:05:40;;;;;;;;;;;;;;;-19.37;80.77;101883.75;5116088;28;19931;-64
2022/01/22 07:08:06;;;;;;;;;;;;;;;-19.38;80.98;101879.53;5115710;28;19931;-65
2022/01/22 07:10:33;;;;;;;;;;;;;;;-19.38;80.81;101879.53;5115818;28;19924;-64
2022/01/22 07:12:59;;;;;;;;;;;;;;;-19.47;80.42;101866.34;5115878;28;19927;-64
2022/01/22 07:15:26;;;;;;;;;;;;;;;-19.39;80.32;101866.28;5115878;28;19930;-63
2022/01/22 07:17:54;;;;;;;;;;;;;;;-19.45;79.64;101863.25;5115782;28;20388;-63
2022/01/22 07:20:28;;;;;;;;;;;;;;;-19.51;79.79;101856.94;5116127;27;19965;-64
2022/01/22 07:22:59;;;;;;;;;;;;;;;-19.63;80.16;101845.25;5115726;28;19924;-68
2022/01/22 07:25:26;;;;;;;;;;;;;;;-19.68;80.78;101845.66;5115430;28;20373;-66
2022/01/22 07:27:53;;;;;;;;;;;;;;;-19.70;82.82;101844.66;5115544;28;19935;-65
2022/01/22 07:30:20;;;;;;;;;;;;;;;-19.55;83.87;101846.75;5115698;28;20405;-65
2022/01/22 07:32:46;;;;;;;;;;;;;;;-19.33;84.14;101846.06;5115154;28;19930;-67
2022/01/22 07:35:13;;;;;;;;;;;;;;;-19.17;85.01;101861.44;5115527;28;19998;-68
2022/01/22 07:37:41;;;;;;;;;;;;;;;-19.00;84.82;101860.34;5115767;28;19924;-64
2022/01/22 07:40:09;;;;;;;;;;;;;;;-18.93;85.40;101874.09;5115247;28;19924;-64
2022/01/22 07:42:37;;;;;;;;;;;;;;;-18.99;85.13;101878.59;5115385;28;19924;-65
2022/01/22 07:45:04;;;;;;;;;;;;;;;-19.01;84.85;101873.47;5115462;28;19924;-64
2022/01/22 07:47:30;;;;;;;;;;;;;;;-18.90;85.61;101876.84;5115319;28;19924;-63
2022/01/22 07:49:57;;;;;;;;;;;;;;;-18.60;85.45;101887.47;5115217;28;19923;-63
2022/01/22 07:52:24;;;;;;;;;;;;;;;-18.67;85.66;101881.16;5115112;28;19923;-63
2022/01/22 07:54:52;;;;;;;;;;;;;;;-18.39;85.96;101885.81;5115079;28;19931;-68
2022/01/22 07:57:18;;;;;;;;;;;;;;;-18.28;84.94;101885.06;5115572;28;19928;-66
2022/01/22 07:59:45;;;;;;;;;;;;;;;-18.23;84.30;101886.31;5115011;28;19924;-64
2022/01/22 08:02:13;;;;;;;;;;;;;;;-18.28;84.34;101885.06;5114951;28;19924;-64
2022/01/22 08:04:40;;;;;;;;;;;;;;;-18.31;85.34;101888.19;5114860;28;20374;-64
2022/01/22 08:07:08;;;;;;;;;;;;;;;-18.31;85.64;101897.22;5114496;28;19923;-65
2022/01/22 08:09:35;;;;;;;;;;;;;;;-18.22;85.67;101893.84;5114790;28;19923;-64
2022/01/22 08:12:03;;;;;;;;;;;;;;;-18.13;85.78;101875.44;5114673;28;19931;-64
2022/01/22 08:14:30;;;;;;;;;;;;;;;-17.84;85.27;101873.59;5114560;28;19924;-66
2022/01/22 08:16:56;;;;;;;;;;;;;;;-17.58;83.68;101872.22;5114711;28;19924;-64
2022/01/22 08:19:24;;;;;;;;;;;;;;;-17.39;83.93;101877.84;5114661;28;19949;-66
2022/01/22 08:21:50;;;;;;;;;;;;;;;-17.38;82.25;101884.53;5116388;27;19932;-65
2022/01/22 08:24:19;;;;;;;;;;;;;;;-17.43;82.64;101880.84;5125826;27;19924;-66
2022/01/22 08:26:49;;;;;;;;;;;;;;;-17.50;82.76;101885.22;5125599;27;20430;-62
2022/01/22 08:29:17;;;;;;;;;;;;;;;-17.60;82.50;101877.06;5114271;28;19924;-67
2022/01/22 08:31:51;;;;;;;;;;;;;;;-17.60;83.04;101889.50;5128952;27;19927;-67
2022/01/22 08:37:01;;;;;;;;;;;;;;;-17.72;82.84;101876.16;5134635;27;19933;-60
2022/01/22 08:39:28;;;;;;;;;;;;;;;-17.55;83.07;101872.44;5126805;27;19930;-67
2022/01/22 08:41:55;;;;;;;;;;;;;;;-17.38;82.69;101882.06;5114648;28;19928;-62
2022/01/22 08:44:23;;;;;;;;;;;;;;;-17.42;83.17;101872.59;5113330;28;20362;-60
2022/01/22 08:46:49;;;;;;;;;;;;;;;-17.30;83.97;101870.19;5114062;28;19934;-61
2022/01/22 08:49:16;;;;;;;;;;;;;;;-17.23;84.07;101869.03;5114043;28;19927;-61
2022/01/22 08:51:43;;;;;;;;;;;;;;;-17.08;85.83;101865.19;5114063;28;19924;-60
2022/01/22 08:54:10;;;;;;;;;;;;;;;-16.99;84.03;101865.84;5113969;28;19935;-62
2022/01/22 08:56:38;;;;;;;;;;;;;;;-16.99;83.69;101867.47;5122532;27;20334;-61
2022/01/22 08:59:05;;;;;;;;;;;;;;;-16.91;84.66;101873.88;5134112;27;20019;-65
2022/01/22 09:01:33;;;;;;;;;;;;;;;-16.82;84.98;101872.09;5134241;27;19924;-65
2022/01/22 09:03:59;;;;;;;;;;;;;;;-16.80;84.40;101874.66;5134396;27;19923;-61
2022/01/22 09:06:27;;;;;;;;;;;;;;;-16.69;83.22;101872.19;5134323;27;19924;-67
2022/01/22 09:08:59;;;;;;;;;;;;;;;-16.63;83.78;101860.94;5134394;27;19923;-67
2022/01/22 09:11:27;;;;;;;;;;;;;;;-16.58;82.93;101858.00;5134670;27;19945;-67
2022/01/22 09:13:54;;;;;;;;;;;;;;;-16.52;85.02;101863.41;5134179;27;20269;-63
2022/01/22 09:16:20;;;;;;;;;;;;;;;-16.72;85.00;101866.97;5134127;27;20346;-61
2022/01/22 09:18:50;;;;;;;;;;;;;;;-16.44;83.67;101860.59;5134303;27;19923;-68
2022/01/22 09:21:17;;;;;;;;;;;;;;;-16.41;84.59;101859.22;5133908;27;19924;-64
2022/01/22 09:23:43;;;;;;;;;;;;;;;-16.38;84.60;101858.56;5133826;27;19924;-64
2022/01/22 09:26:10;;;;;;;;;;;;;;;-16.44;84.91;101858.13;5133965;27;19928;-63
2022/01/22 09:28:37;;;;;;;;;;;;;;;-16.33;85.29;101854.78;5133624;27;19923;-66
2022/01/22 09:31:04;;;;;;;;;;;;;;;-15.96;86.22;101860.69;5121948;27;20014;-67
2022/01/22 09:33:31;;;;;;;;;;;;;;;-15.86;85.82;101849.75;5113177;28;19927;-64
2022/01/22 09:35:59;;;;;;;;;;;;;;;-15.92;85.82;101856.81;5113298;28;20374;-68
2022/01/22 09:38:26;;;;;;;;;;;;;;;-15.64;85.38;101855.41;5112962;28;19928;-68
2022/01/22 09:40:52;;;;;;;;;;;;;;;-15.52;84.05;101854.50;5112769;28;20341;-68
2022/01/22 09:43:19;;;;;;;;;;;;;;;-15.69;85.20;101851.78;5113476;28;19927;-67
2022/01/22 09:45:46;;;;;;;;;;;;;;;-15.66;84.72;101851.94;5113302;28;19924;-68
2022/01/22 09:48:13;;;;;;;;;;;;;;;-15.45;84.21;101852.53;5112933;28;19924;-66
2022/01/22 09:50:39;;;;;;;;;;;;;;;-15.40;83.95;101847.84;5113253;28;20329;-66
2022/01/22 09:53:08;;;;;;;;;;;;;;;-15.43;84.29;101851.00;5113147;28;20393;-64
2022/01/22 09:55:34;;;;;;;;;;;;;;;-15.53;83.86;101848.66;5118534;28;19977;-64
2022/01/22 09:58:01;;;;;;;;;;;;;;;-15.65;84.53;101848.66;5120166;28;19935;-63
2022/01/22 10:00:28;;;;;;;;;;;;;;;-15.67;85.23;101850.19;5120059;28;19924;-63
2022/01/22 10:03:00;;;;;;;;;;;;;;;-15.66;85.19;101846.94;5119994;27;19935;-64
2022/01/22 10:05:28;;;;;;;;;;;;;;;-15.33;84.72;101841.63;5119802;27;19924;-63
2022/01/22 10:07:54;;;;;;;;;;;;;;;-15.29;84.83;101843.56;5120000;28;19934;-64
2022/01/22 10:10:22;;;;;;;;;;;;;;;-15.29;84.64;101836.09;5120032;28;19927;-67
2022/01/22 10:12:51;;;;;;;;;;;;;;;-15.30;85.02;101841.84;5119782;28;19974;-67
2022/01/22 10:15:18;;;;;;;;;;;;;;;-15.32;85.01;101855.84;5119726;27;19923;-69
2022/01/22 10:17:46;;;;;;;;;;;;;;;-15.32;85.01;101851.72;5119370;28;19923;-67
2022/01/22 10:20:28;;;;;;;;;;;;;;;-15.26;85.04;101846.25;5119560;28;19924;-67
2022/01/22 10:22:58;;;;;;;;;;;;;;;-15.33;85.28;101856.59;5119714;27;19982;-71
2022/01/22 10:25:30;;;;;;;;;;;;;;;-15.20;84.75;101861.66;5119543;28;19969;-71
2022/01/22 10:27:58;;;;;;;;;;;;;;;-15.22;85.02;101859.06;5119704;28;19923;-70
2022/01/22 10:30:34;;;;;;;;;;;;;;;-15.19;84.96;101848.41;5125272;27;19930;-69
2022/01/22 10:33:07;;;;;;;;;;;;;;;-15.22;84.64;101851.56;5140026;27;19928;-69
2022/01/22 10:35:34;;;;;;;;;;;;;;;-15.03;84.92;101847.78;5140231;27;19930;-64
2022/01/22 10:38:01;;;;;;;;;;;;;;;-15.12;84.79;101850.56;5140328;27;19924;-64
2022/01/22 10:40:30;;;;;;;;;;;;;;;-14.99;84.06;101849.72;5140322;27;19924;-66
2022/01/22 10:43:15;;;;;;;;;;;;;;;-14.98;83.88;101851.44;5140026;27;19934;-67
2022/01/22 10:45:41;;;;;;;;;;;;;;;-14.88;84.49;101848.78;5140210;27;19976;-65
2022/01/22 10:48:15;;;;;;;;;;;;;;;-14.80;84.27;101856.78;5139704;27;19923;-65
2022/01/22 10:50:42;;;;;;;;;;;;;;;-14.81;84.60;101850.91;5139818;27;19930;-66
2022/01/22 10:53:09;;;;;;;;;;;;;;;-14.90;84.36;101849.44;5139751;27;19923;-64
2022/01/22 10:55:59;;;;;;;;;;;;;;;-14.90;85.29;101850.31;5139977;27;19931;-65
2022/01/22 10:58:26;;;;;;;;;;;;;;;-14.78;83.73;101848.63;5140167;27;19924;-67
2022/01/22 11:00:58;;;;;;;;;;;;;;;-14.66;83.50;101843.56;5139961;27;20293;-62
2022/01/22 11:03:26;;;;;;;;;;;;;;;-14.51;84.09;101844.50;5139877;27;19927;-65
2022/01/22 11:05:52;;;;;;;;;;;;;;;-14.52;83.88;101842.75;5137823;27;19930;-64
2022/01/22 11:08:19;;;;;;;;;;;;;;;-14.62;84.18;101837.97;5136790;27;19930;-63
2022/01/22 11:10:47;;;;;;;;;;;;;;;-14.65;84.46;101841.91;5136364;27;19924;-63
2022/01/22 11:13:14;;;;;;;;;;;;;;;-14.43;83.93;101844.13;5136514;27;19930;-65
2022/01/22 11:15:41;;;;;;;;;;;;;;;-14.40;83.55;101852.69;5136340;27;19928;-63
2022/01/22 11:18:08;;;;;;;;;;;;;;;-14.52;84.33;101850.25;5136798;27;19959;-64
2022/01/22 11:20:36;;;;;;;;;;;;;;;-14.41;84.61;101852.56;5136500;27;19924;-63
2022/01/22 11:23:03;;;;;;;;;;;;;;;-14.48;85.18;101842.19;5136044;27;19923;-63
2022/01/22 11:25:31;;;;;;;;;;;;;;;-14.69;85.44;101850.88;5136284;27;19935;-68
2022/01/22 11:27:59;;;;;;;;;;;;;;;-14.77;86.68;101846.97;5136028;27;19923;-66
2022/01/22 11:30:27;;;;;;;;;;;;;;;-14.64;86.72;101838.63;5129561;27;19928;-63
2022/01/22 11:32:55;;;;;;;;;;;;;;;-14.29;85.61;101833.34;5115414;28;19923;-67
2022/01/22 11:35:23;;;;;;;;;;;;;;;-14.15;85.14;101835.09;5115353;28;19924;-68
2022/01/22 11:37:50;;;;;;;;;;;;;;;-14.07;84.66;101835.56;5115241;28;20381;-67
2022/01/22 11:40:19;;;;;;;;;;;;;;;-14.21;85.13;101832.19;5115226;28;19953;-69
2022/01/22 11:42:58;;;;;;;;;;;;;;;-14.09;85.31;101842.94;5115246;28;19924;-68
2022/01/22 11:45:29;;;;;;;;;;;;;;;-14.12;85.01;101842.78;5115277;28;19924;-69
2022/01/22 11:48:15;;;;;;;;;;;;;;;-14.18;85.62;101841.50;5115305;28;19923;-68
2022/01/22 11:50:42;;;;;;;;;;;;;;;-14.06;85.71;101827.28;5115345;27;19969;-69
2022/01/22 11:53:22;;;;;;;;;;;;;;;-14.18;86.03;101829.88;5115056;28;20374;-67
2022/01/22 11:56:04;;;;;;;;;;;;;;;-14.20;86.65;101833.94;5114985;28;19924;-69
2022/01/22 11:58:30;;;;;;;;;;;;;;;-13.94;86.00;101833.03;5114270;28;19938;-69
2022/01/22 12:00:58;;;;;;;;;;;;;;;-13.89;86.10;101836.69;5114672;28;19931;-69
2022/01/22 12:03:25;;;;;;;;;;;;;;;-13.89;86.30;101830.81;5115114;28;19947;-67
2022/01/22 12:06:08;;;;;;;;;;;;;;;-13.87;86.57;101830.13;5114781;28;19923;-67
2022/01/22 12:08:58;;;;;;;;;;;;;;;-13.84;86.41;101835.31;5115124;28;19930;-67
2022/01/22 12:14:40;;;;;;;;;;;;;;;-14.09;87.61;101827.09;5115038;28;19931;-69
2022/01/22 12:17:13;;;;;;;;;;;;;;;-14.02;87.26;101808.31;5114392;28;19924;-67
2022/01/22 12:20:05;;;;;;;;;;;;;;;-13.73;86.64;101808.44;5114118;28;20312;-67
2022/01/22 12:22:32;;;;;;;;;;;;;;;-13.64;86.86;101808.13;5114636;28;19946;-68
2022/01/22 12:25:01;;;;;;;;;;;;;;;-13.67;86.71;101802.94;5114678;28;20880;-68
2022/01/22 12:27:43;;;;;;;;;;;;;;;-13.76;87.31;101805.75;5114061;28;19924;-68
2022/01/22 12:30:10;;;;;;;;;;;;;;;-13.73;87.07;101813.44;5118276;27;19923;-68
2022/01/22 12:32:45;;;;;;;;;;;;;;;-13.78;87.51;101812.31;5134861;27;19937;-63
2022/01/22 12:35:14;;;;;;;;;;;;;;;-13.71;87.54;101809.41;5134907;27;20037;-64
2022/01/22 12:37:46;;;;;;;;;;;;;;;-13.68;87.27;101803.72;5134899;27;19923;-68
2022/01/22 12:40:14;;;;;;;;;;;;;;;-13.67;87.25;101796.28;5134684;27;20375;-68
2022/01/22 12:42:56;;;;;;;;;;;;;;;-13.64;87.42;101796.50;5134915;27;19930;-64
2022/01/22 12:45:25;;;;;;;;;;;;;;;-13.64;87.71;101793.09;5134806;27;19927;-68
2022/01/22 12:47:55;;;;;;;;;;;;;;;-13.65;87.56;101796.38;5134373;27;19976;-67
2022/01/22 12:50:33;;;;;;;;;;;;;;;-13.65;88.15;101793.88;5134448;27;19931;-69
2022/01/22 12:53:04;;;;;;;;;;;;;;;-13.67;88.13;101793.78;5134431;27;19923;-68
2022/01/22 12:56:13;;;;;;;;;;;;;;;-13.68;88.34;101786.19;5134431;27;20313;-68
2022/01/22 12:58:41;;;;;;;;;;;;;;;-13.64;88.39;101778.06;5134527;27;20014;-68
2022/01/22 13:01:09;;;;;;;;;;;;;;;-13.60;88.31;101773.34;5134697;27;19924;-69
2022/01/22 13:03:37;;;;;;;;;;;;;;;-13.58;88.00;101772.59;5134148;27;20030;-69
2022/01/22 13:06:04;;;;;;;;;;;;;;;-13.58;88.32;101775.09;5134264;27;19930;-69
2022/01/22 13:08:32;;;;;;;;;;;;;;;-13.53;88.31;101771.22;5134385;27;19923;-69
2022/01/22 13:11:00;;;;;;;;;;;;;;;-13.55;88.08;101773.63;5134230;27;19923;-69
2022/01/22 13:13:28;;;;;;;;;;;;;;;-13.56;88.58;101771.03;5134008;27;19931;-67
2022/01/22 13:16:01;;;;;;;;;;;;;;;-13.45;88.32;101775.91;5134339;27;19927;-64
2022/01/22 13:18:40;;;;;;;;;;;;;;;-13.38;88.46;101783.00;5133978;27;19930;-65
2022/01/22 13:21:07;;;;;;;;;;;;;;;-13.41;88.81;101776.94;5134056;27;19962;-64
2022/01/22 13:23:34;;;;;;;;;;;;;;;-13.42;89.13;101782.72;5133848;27;20274;-63
2022/01/22 13:26:01;;;;;;;;;;;;;;;-13.31;88.23;101784.19;5133850;27;19924;-64
2022/01/22 13:28:31;;;;;;;;;;;;;;;-13.32;88.35;101789.13;5133792;27;20010;-64
2022/01/22 13:31:02;;;;;;;;;;;;;;;-13.34;88.07;101789.03;5122520;27;20404;-64
2022/01/22 13:33:37;;;;;;;;;;;;;;;-13.42;87.69;101788.59;5113178;28;19923;-64
2022/01/22 13:36:15;;;;;;;;;;;;;;;-13.45;88.28;101785.06;5113211;28;19928;-67
2022/01/22 13:38:59;;;;;;;;;;;;;;;-13.46;88.45;101778.28;5113311;28;19930;-64
2022/01/22 13:49:36;;;;;;;;;;;;;;;-13.34;88.06;101786.53;5130511;27;19978;-67
2022/01/22 13:52:05;;;;;;;;;;;;;;;-13.35;88.13;101793.97;5115252;27;20401;-66
2022/01/22 13:54:33;;;;;;;;;;;;;;;-13.41;88.11;101796.97;5115372;28;20030;-64
2022/01/22 13:57:04;;;;;;;;;;;;;;;-13.34;88.07;101795.69;5112764;28;19924;-68